<?xml version="1.0" encoding="UTF-8" standalone="no" ?>
<gpx xmlns="http://www.topografix.com/GPX/1/1" xmlns:xsi="http://www.w3.org/2001/XMLSchema-instance" xsi:schemaLocation="http://www.topografix.com/GPX/1/1 http://www.topografix.com/GPX/1/1/gpx.xsd" version="1.1" creator="VisuGPX - https://www.visugpx.com">
  <metadata>
    <name>Ueberstrass Largitzen grand tour seul</name>
    <desc><![CDATA[Ueberstrass Largitzen grand tour seul
]]></desc>
  </metadata>
  <trk>
    <name><![CDATA[2014-02-27 12:25]]></name>
    <desc><![CDATA[<h1>OruxMaps</h1><br /><hr align="center" width="480" style="height: 2px; width: 517px"/><h2>Nom: 2014-02-27 12:25</h2><br /><p>Temps de départ: 02/27/2014 12:25</p><p>Temps d'arrivée: 02/27/2014 13:28</p><p>Distance: 0 km (00:00)</p><p>Temps déplacement: 00:00</p><p>Vitesse moyenne: 0 km/h</p><p>Vitesse moyenne: 0 km/h</p><p>Vitess Max.: 0 km/h</p><p>Gain Altitude: 0 m</p><p>Perte Altitude: 0 m</p><p>Temps d'élévation: 00:00</p><p>Temps de descente: 00:00</p><hr align="center" width="480" style="height: 2px; width: 517px"/>]]></desc>
    <trkseg>
      <trkpt lat="47.54116" lon="7.17068">
        <ele>367</ele>
        <time>2014-02-27T11:25:51Z</time>
      </trkpt>
      <trkpt lat="47.54094" lon="7.17082">
        <ele>367</ele>
        <time>2014-02-27T11:26:09Z</time>
      </trkpt>
      <trkpt lat="47.54073" lon="7.17098">
        <ele>368</ele>
        <time>2014-02-27T11:26:23Z</time>
      </trkpt>
      <trkpt lat="47.54059" lon="7.1713">
        <ele>370</ele>
        <time>2014-02-27T11:26:36Z</time>
      </trkpt>
      <trkpt lat="47.54045" lon="7.17161">
        <ele>370</ele>
        <time>2014-02-27T11:26:50Z</time>
      </trkpt>
      <trkpt lat="47.54033" lon="7.17181">
        <ele>370</ele>
        <time>2014-02-27T11:27:00Z</time>
      </trkpt>
      <trkpt lat="47.54017" lon="7.17211">
        <ele>370</ele>
        <time>2014-02-27T11:27:14Z</time>
      </trkpt>
      <trkpt lat="47.54004" lon="7.1723">
        <ele>370</ele>
        <time>2014-02-27T11:27:24Z</time>
      </trkpt>
      <trkpt lat="47.53981" lon="7.17232">
        <ele>372</ele>
        <time>2014-02-27T11:27:43Z</time>
      </trkpt>
      <trkpt lat="47.53957" lon="7.17221">
        <ele>373</ele>
        <time>2014-02-27T11:27:57Z</time>
      </trkpt>
      <trkpt lat="47.53938" lon="7.17227">
        <ele>373</ele>
        <time>2014-02-27T11:28:07Z</time>
      </trkpt>
      <trkpt lat="47.53925" lon="7.17249">
        <ele>373</ele>
        <time>2014-02-27T11:28:17Z</time>
      </trkpt>
      <trkpt lat="47.53908" lon="7.17276">
        <ele>374</ele>
        <time>2014-02-27T11:28:31Z</time>
      </trkpt>
      <trkpt lat="47.53893" lon="7.17303">
        <ele>374</ele>
        <time>2014-02-27T11:28:45Z</time>
      </trkpt>
      <trkpt lat="47.53881" lon="7.17325">
        <ele>374</ele>
        <time>2014-02-27T11:28:55Z</time>
      </trkpt>
      <trkpt lat="47.53866" lon="7.17354">
        <ele>374</ele>
        <time>2014-02-27T11:29:08Z</time>
      </trkpt>
      <trkpt lat="47.53872" lon="7.17384">
        <ele>374</ele>
        <time>2014-02-27T11:29:18Z</time>
      </trkpt>
      <trkpt lat="47.53886" lon="7.174">
        <ele>373</ele>
        <time>2014-02-27T11:29:27Z</time>
      </trkpt>
      <trkpt lat="47.53903" lon="7.17427">
        <ele>372</ele>
        <time>2014-02-27T11:29:41Z</time>
      </trkpt>
      <trkpt lat="47.53916" lon="7.17459">
        <ele>373</ele>
        <time>2014-02-27T11:29:55Z</time>
      </trkpt>
      <trkpt lat="47.53928" lon="7.17487">
        <ele>371</ele>
        <time>2014-02-27T11:30:08Z</time>
      </trkpt>
      <trkpt lat="47.5394" lon="7.1751">
        <ele>372</ele>
        <time>2014-02-27T11:30:18Z</time>
      </trkpt>
      <trkpt lat="47.53959" lon="7.17539">
        <ele>371</ele>
        <time>2014-02-27T11:30:32Z</time>
      </trkpt>
      <trkpt lat="47.53977" lon="7.17562">
        <ele>372</ele>
        <time>2014-02-27T11:30:45Z</time>
      </trkpt>
      <trkpt lat="47.53998" lon="7.17593">
        <ele>372</ele>
        <time>2014-02-27T11:31:00Z</time>
      </trkpt>
      <trkpt lat="47.54018" lon="7.17613">
        <ele>373</ele>
        <time>2014-02-27T11:31:14Z</time>
      </trkpt>
      <trkpt lat="47.54032" lon="7.17633">
        <ele>374</ele>
        <time>2014-02-27T11:31:24Z</time>
      </trkpt>
      <trkpt lat="47.54048" lon="7.17659">
        <ele>374</ele>
        <time>2014-02-27T11:31:38Z</time>
      </trkpt>
      <trkpt lat="47.54065" lon="7.17681">
        <ele>377</ele>
        <time>2014-02-27T11:31:51Z</time>
      </trkpt>
      <trkpt lat="47.54083" lon="7.17708">
        <ele>378</ele>
        <time>2014-02-27T11:32:05Z</time>
      </trkpt>
      <trkpt lat="47.54104" lon="7.17717">
        <ele>384</ele>
        <time>2014-02-27T11:32:19Z</time>
      </trkpt>
      <trkpt lat="47.54124" lon="7.17708">
        <ele>384</ele>
        <time>2014-02-27T11:32:37Z</time>
      </trkpt>
      <trkpt lat="47.54141" lon="7.17686">
        <ele>385</ele>
        <time>2014-02-27T11:32:50Z</time>
      </trkpt>
      <trkpt lat="47.54153" lon="7.17664">
        <ele>383</ele>
        <time>2014-02-27T11:33:03Z</time>
      </trkpt>
      <trkpt lat="47.54165" lon="7.17641">
        <ele>382</ele>
        <time>2014-02-27T11:33:17Z</time>
      </trkpt>
      <trkpt lat="47.54178" lon="7.17615">
        <ele>387</ele>
        <time>2014-02-27T11:33:31Z</time>
      </trkpt>
      <trkpt lat="47.5419" lon="7.17588">
        <ele>387</ele>
        <time>2014-02-27T11:33:45Z</time>
      </trkpt>
      <trkpt lat="47.54204" lon="7.17569">
        <ele>386</ele>
        <time>2014-02-27T11:33:55Z</time>
      </trkpt>
      <trkpt lat="47.54219" lon="7.17545">
        <ele>388</ele>
        <time>2014-02-27T11:34:08Z</time>
      </trkpt>
      <trkpt lat="47.54234" lon="7.17523">
        <ele>389</ele>
        <time>2014-02-27T11:34:21Z</time>
      </trkpt>
      <trkpt lat="47.54249" lon="7.17502">
        <ele>394</ele>
        <time>2014-02-27T11:34:31Z</time>
      </trkpt>
      <trkpt lat="47.54268" lon="7.17473">
        <ele>397</ele>
        <time>2014-02-27T11:34:45Z</time>
      </trkpt>
      <trkpt lat="47.54282" lon="7.17454">
        <ele>397</ele>
        <time>2014-02-27T11:34:55Z</time>
      </trkpt>
      <trkpt lat="47.543" lon="7.17428">
        <ele>398</ele>
        <time>2014-02-27T11:35:08Z</time>
      </trkpt>
      <trkpt lat="47.5432" lon="7.17406">
        <ele>396</ele>
        <time>2014-02-27T11:35:26Z</time>
      </trkpt>
      <trkpt lat="47.54338" lon="7.17387">
        <ele>401</ele>
        <time>2014-02-27T11:35:41Z</time>
      </trkpt>
      <trkpt lat="47.54355" lon="7.17372">
        <ele>401</ele>
        <time>2014-02-27T11:35:54Z</time>
      </trkpt>
      <trkpt lat="47.54377" lon="7.17348">
        <ele>401</ele>
        <time>2014-02-27T11:36:08Z</time>
      </trkpt>
      <trkpt lat="47.54393" lon="7.17328">
        <ele>396</ele>
        <time>2014-02-27T11:36:17Z</time>
      </trkpt>
      <trkpt lat="47.54414" lon="7.17306">
        <ele>395</ele>
        <time>2014-02-27T11:36:30Z</time>
      </trkpt>
      <trkpt lat="47.54436" lon="7.17289">
        <ele>400</ele>
        <time>2014-02-27T11:36:44Z</time>
      </trkpt>
      <trkpt lat="47.54456" lon="7.17273">
        <ele>400</ele>
        <time>2014-02-27T11:36:57Z</time>
      </trkpt>
      <trkpt lat="47.54472" lon="7.17257">
        <ele>401</ele>
        <time>2014-02-27T11:37:07Z</time>
      </trkpt>
      <trkpt lat="47.54491" lon="7.17234">
        <ele>397</ele>
        <time>2014-02-27T11:37:20Z</time>
      </trkpt>
      <trkpt lat="47.5451" lon="7.17215">
        <ele>401</ele>
        <time>2014-02-27T11:37:33Z</time>
      </trkpt>
      <trkpt lat="47.5453" lon="7.17192">
        <ele>400</ele>
        <time>2014-02-27T11:37:47Z</time>
      </trkpt>
      <trkpt lat="47.5455" lon="7.17174">
        <ele>401</ele>
        <time>2014-02-27T11:38:01Z</time>
      </trkpt>
      <trkpt lat="47.54565" lon="7.17151">
        <ele>397</ele>
        <time>2014-02-27T11:38:15Z</time>
      </trkpt>
      <trkpt lat="47.54584" lon="7.17132">
        <ele>401</ele>
        <time>2014-02-27T11:38:29Z</time>
      </trkpt>
      <trkpt lat="47.54605" lon="7.17107">
        <ele>400</ele>
        <time>2014-02-27T11:38:43Z</time>
      </trkpt>
      <trkpt lat="47.54623" lon="7.1709">
        <ele>400</ele>
        <time>2014-02-27T11:38:56Z</time>
      </trkpt>
      <trkpt lat="47.54642" lon="7.17068">
        <ele>397</ele>
        <time>2014-02-27T11:39:10Z</time>
      </trkpt>
      <trkpt lat="47.54663" lon="7.17044">
        <ele>396</ele>
        <time>2014-02-27T11:39:24Z</time>
      </trkpt>
      <trkpt lat="47.5468" lon="7.17026">
        <ele>398</ele>
        <time>2014-02-27T11:39:33Z</time>
      </trkpt>
      <trkpt lat="47.54698" lon="7.1701">
        <ele>398</ele>
        <time>2014-02-27T11:39:43Z</time>
      </trkpt>
      <trkpt lat="47.54716" lon="7.16993">
        <ele>395</ele>
        <time>2014-02-27T11:39:56Z</time>
      </trkpt>
      <trkpt lat="47.54733" lon="7.16975">
        <ele>395</ele>
        <time>2014-02-27T11:40:09Z</time>
      </trkpt>
      <trkpt lat="47.54754" lon="7.16958">
        <ele>399</ele>
        <time>2014-02-27T11:40:23Z</time>
      </trkpt>
      <trkpt lat="47.54775" lon="7.16947">
        <ele>399</ele>
        <time>2014-02-27T11:40:37Z</time>
      </trkpt>
      <trkpt lat="47.54794" lon="7.16934">
        <ele>400</ele>
        <time>2014-02-27T11:40:50Z</time>
      </trkpt>
      <trkpt lat="47.54811" lon="7.16922">
        <ele>400</ele>
        <time>2014-02-27T11:41:00Z</time>
      </trkpt>
      <trkpt lat="47.54836" lon="7.16914">
        <ele>401</ele>
        <time>2014-02-27T11:41:14Z</time>
      </trkpt>
      <trkpt lat="47.54855" lon="7.16905">
        <ele>400</ele>
        <time>2014-02-27T11:41:23Z</time>
      </trkpt>
      <trkpt lat="47.54879" lon="7.16895">
        <ele>401</ele>
        <time>2014-02-27T11:41:37Z</time>
      </trkpt>
      <trkpt lat="47.54902" lon="7.16896">
        <ele>401</ele>
        <time>2014-02-27T11:41:51Z</time>
      </trkpt>
      <trkpt lat="47.54923" lon="7.1689">
        <ele>404</ele>
        <time>2014-02-27T11:42:01Z</time>
      </trkpt>
      <trkpt lat="47.54943" lon="7.16883">
        <ele>404</ele>
        <time>2014-02-27T11:42:10Z</time>
      </trkpt>
      <trkpt lat="47.54964" lon="7.16883">
        <ele>405</ele>
        <time>2014-02-27T11:42:24Z</time>
      </trkpt>
      <trkpt lat="47.54984" lon="7.16891">
        <ele>406</ele>
        <time>2014-02-27T11:42:39Z</time>
      </trkpt>
      <trkpt lat="47.55003" lon="7.16893">
        <ele>407</ele>
        <time>2014-02-27T11:42:54Z</time>
      </trkpt>
      <trkpt lat="47.55024" lon="7.16886">
        <ele>406</ele>
        <time>2014-02-27T11:43:08Z</time>
      </trkpt>
      <trkpt lat="47.55044" lon="7.16891">
        <ele>406</ele>
        <time>2014-02-27T11:43:21Z</time>
      </trkpt>
      <trkpt lat="47.55062" lon="7.16884">
        <ele>406</ele>
        <time>2014-02-27T11:43:31Z</time>
      </trkpt>
      <trkpt lat="47.55088" lon="7.16896">
        <ele>405</ele>
        <time>2014-02-27T11:43:41Z</time>
      </trkpt>
      <trkpt lat="47.55108" lon="7.16893">
        <ele>403</ele>
        <time>2014-02-27T11:43:55Z</time>
      </trkpt>
      <trkpt lat="47.55131" lon="7.16893">
        <ele>402</ele>
        <time>2014-02-27T11:44:09Z</time>
      </trkpt>
      <trkpt lat="47.55152" lon="7.16892">
        <ele>402</ele>
        <time>2014-02-27T11:44:22Z</time>
      </trkpt>
      <trkpt lat="47.55175" lon="7.16888">
        <ele>398</ele>
        <time>2014-02-27T11:44:32Z</time>
      </trkpt>
      <trkpt lat="47.55193" lon="7.16878">
        <ele>396</ele>
        <time>2014-02-27T11:44:42Z</time>
      </trkpt>
      <trkpt lat="47.5521" lon="7.16858">
        <ele>395</ele>
        <time>2014-02-27T11:44:51Z</time>
      </trkpt>
      <trkpt lat="47.55228" lon="7.16848">
        <ele>393</ele>
        <time>2014-02-27T11:45:00Z</time>
      </trkpt>
      <trkpt lat="47.55252" lon="7.16837">
        <ele>390</ele>
        <time>2014-02-27T11:45:09Z</time>
      </trkpt>
      <trkpt lat="47.55272" lon="7.16821">
        <ele>390</ele>
        <time>2014-02-27T11:45:19Z</time>
      </trkpt>
      <trkpt lat="47.55284" lon="7.16796">
        <ele>390</ele>
        <time>2014-02-27T11:45:29Z</time>
      </trkpt>
      <trkpt lat="47.553" lon="7.16761">
        <ele>390</ele>
        <time>2014-02-27T11:45:43Z</time>
      </trkpt>
      <trkpt lat="47.55319" lon="7.16734">
        <ele>387</ele>
        <time>2014-02-27T11:45:56Z</time>
      </trkpt>
      <trkpt lat="47.55329" lon="7.1671">
        <ele>385</ele>
        <time>2014-02-27T11:46:06Z</time>
      </trkpt>
      <trkpt lat="47.55343" lon="7.16685">
        <ele>384</ele>
        <time>2014-02-27T11:46:15Z</time>
      </trkpt>
      <trkpt lat="47.55358" lon="7.1666">
        <ele>379</ele>
        <time>2014-02-27T11:46:30Z</time>
      </trkpt>
      <trkpt lat="47.55384" lon="7.16647">
        <ele>380</ele>
        <time>2014-02-27T11:46:44Z</time>
      </trkpt>
      <trkpt lat="47.55401" lon="7.1664">
        <ele>380</ele>
        <time>2014-02-27T11:46:53Z</time>
      </trkpt>
      <trkpt lat="47.55425" lon="7.16626">
        <ele>380</ele>
        <time>2014-02-27T11:47:07Z</time>
      </trkpt>
      <trkpt lat="47.55447" lon="7.16614">
        <ele>379</ele>
        <time>2014-02-27T11:47:20Z</time>
      </trkpt>
      <trkpt lat="47.55468" lon="7.16607">
        <ele>379</ele>
        <time>2014-02-27T11:47:33Z</time>
      </trkpt>
      <trkpt lat="47.55489" lon="7.16601">
        <ele>378</ele>
        <time>2014-02-27T11:47:43Z</time>
      </trkpt>
      <trkpt lat="47.55508" lon="7.16596">
        <ele>377</ele>
        <time>2014-02-27T11:47:53Z</time>
      </trkpt>
      <trkpt lat="47.55535" lon="7.16589">
        <ele>378</ele>
        <time>2014-02-27T11:48:07Z</time>
      </trkpt>
      <trkpt lat="47.55562" lon="7.1658">
        <ele>375</ele>
        <time>2014-02-27T11:48:20Z</time>
      </trkpt>
      <trkpt lat="47.55588" lon="7.16578">
        <ele>375</ele>
        <time>2014-02-27T11:48:33Z</time>
      </trkpt>
      <trkpt lat="47.55606" lon="7.16581">
        <ele>374</ele>
        <time>2014-02-27T11:48:43Z</time>
      </trkpt>
      <trkpt lat="47.5562" lon="7.16602">
        <ele>377</ele>
        <time>2014-02-27T11:48:56Z</time>
      </trkpt>
      <trkpt lat="47.55627" lon="7.16636">
        <ele>378</ele>
        <time>2014-02-27T11:49:09Z</time>
      </trkpt>
      <trkpt lat="47.55633" lon="7.16675">
        <ele>381</ele>
        <time>2014-02-27T11:49:24Z</time>
      </trkpt>
      <trkpt lat="47.55638" lon="7.1671">
        <ele>381</ele>
        <time>2014-02-27T11:49:37Z</time>
      </trkpt>
      <trkpt lat="47.55641" lon="7.16737">
        <ele>382</ele>
        <time>2014-02-27T11:49:47Z</time>
      </trkpt>
      <trkpt lat="47.55646" lon="7.16774">
        <ele>384</ele>
        <time>2014-02-27T11:50:01Z</time>
      </trkpt>
      <trkpt lat="47.5565" lon="7.16802">
        <ele>385</ele>
        <time>2014-02-27T11:50:11Z</time>
      </trkpt>
      <trkpt lat="47.55656" lon="7.16838">
        <ele>385</ele>
        <time>2014-02-27T11:50:25Z</time>
      </trkpt>
      <trkpt lat="47.5566" lon="7.16864">
        <ele>386</ele>
        <time>2014-02-27T11:50:35Z</time>
      </trkpt>
      <trkpt lat="47.55665" lon="7.16899">
        <ele>387</ele>
        <time>2014-02-27T11:50:48Z</time>
      </trkpt>
      <trkpt lat="47.55667" lon="7.16936">
        <ele>384</ele>
        <time>2014-02-27T11:51:02Z</time>
      </trkpt>
      <trkpt lat="47.55671" lon="7.1697">
        <ele>384</ele>
        <time>2014-02-27T11:51:15Z</time>
      </trkpt>
      <trkpt lat="47.55674" lon="7.17001">
        <ele>385</ele>
        <time>2014-02-27T11:51:25Z</time>
      </trkpt>
      <trkpt lat="47.55676" lon="7.17029">
        <ele>384</ele>
        <time>2014-02-27T11:51:34Z</time>
      </trkpt>
      <trkpt lat="47.55681" lon="7.17064">
        <ele>384</ele>
        <time>2014-02-27T11:51:48Z</time>
      </trkpt>
      <trkpt lat="47.55687" lon="7.17102">
        <ele>384</ele>
        <time>2014-02-27T11:52:02Z</time>
      </trkpt>
      <trkpt lat="47.55695" lon="7.17134">
        <ele>383</ele>
        <time>2014-02-27T11:52:15Z</time>
      </trkpt>
      <trkpt lat="47.55707" lon="7.17165">
        <ele>382</ele>
        <time>2014-02-27T11:52:29Z</time>
      </trkpt>
      <trkpt lat="47.55711" lon="7.17193">
        <ele>383</ele>
        <time>2014-02-27T11:52:38Z</time>
      </trkpt>
      <trkpt lat="47.55722" lon="7.17224">
        <ele>382</ele>
        <time>2014-02-27T11:52:51Z</time>
      </trkpt>
      <trkpt lat="47.55729" lon="7.17249">
        <ele>381</ele>
        <time>2014-02-27T11:53:00Z</time>
      </trkpt>
      <trkpt lat="47.55737" lon="7.17286">
        <ele>382</ele>
        <time>2014-02-27T11:53:14Z</time>
      </trkpt>
      <trkpt lat="47.55741" lon="7.17319">
        <ele>381</ele>
        <time>2014-02-27T11:53:27Z</time>
      </trkpt>
      <trkpt lat="47.55722" lon="7.17333">
        <ele>382</ele>
        <time>2014-02-27T11:53:41Z</time>
      </trkpt>
      <trkpt lat="47.55697" lon="7.1734">
        <ele>384</ele>
        <time>2014-02-27T11:53:55Z</time>
      </trkpt>
      <trkpt lat="47.55674" lon="7.17351">
        <ele>385</ele>
        <time>2014-02-27T11:54:08Z</time>
      </trkpt>
      <trkpt lat="47.55651" lon="7.17358">
        <ele>390</ele>
        <time>2014-02-27T11:54:21Z</time>
      </trkpt>
      <trkpt lat="47.55628" lon="7.17366">
        <ele>392</ele>
        <time>2014-02-27T11:54:35Z</time>
      </trkpt>
      <trkpt lat="47.55606" lon="7.1737">
        <ele>394</ele>
        <time>2014-02-27T11:54:49Z</time>
      </trkpt>
      <trkpt lat="47.5559" lon="7.17385">
        <ele>395</ele>
        <time>2014-02-27T11:55:02Z</time>
      </trkpt>
      <trkpt lat="47.55574" lon="7.17404">
        <ele>402</ele>
        <time>2014-02-27T11:55:15Z</time>
      </trkpt>
      <trkpt lat="47.55553" lon="7.17421">
        <ele>406</ele>
        <time>2014-02-27T11:55:30Z</time>
      </trkpt>
      <trkpt lat="47.55535" lon="7.17443">
        <ele>407</ele>
        <time>2014-02-27T11:55:44Z</time>
      </trkpt>
      <trkpt lat="47.55513" lon="7.17458">
        <ele>408</ele>
        <time>2014-02-27T11:56:02Z</time>
      </trkpt>
      <trkpt lat="47.55503" lon="7.17493">
        <ele>411</ele>
        <time>2014-02-27T11:56:15Z</time>
      </trkpt>
      <trkpt lat="47.55504" lon="7.17526">
        <ele>410</ele>
        <time>2014-02-27T11:56:25Z</time>
      </trkpt>
      <trkpt lat="47.55501" lon="7.17555">
        <ele>409</ele>
        <time>2014-02-27T11:56:38Z</time>
      </trkpt>
      <trkpt lat="47.55497" lon="7.17586">
        <ele>409</ele>
        <time>2014-02-27T11:56:51Z</time>
      </trkpt>
      <trkpt lat="47.55489" lon="7.1761">
        <ele>409</ele>
        <time>2014-02-27T11:57:01Z</time>
      </trkpt>
      <trkpt lat="47.55478" lon="7.17642">
        <ele>409</ele>
        <time>2014-02-27T11:57:15Z</time>
      </trkpt>
      <trkpt lat="47.55467" lon="7.17666">
        <ele>409</ele>
        <time>2014-02-27T11:57:28Z</time>
      </trkpt>
      <trkpt lat="47.55455" lon="7.17696">
        <ele>408</ele>
        <time>2014-02-27T11:57:43Z</time>
      </trkpt>
      <trkpt lat="47.55444" lon="7.17723">
        <ele>409</ele>
        <time>2014-02-27T11:57:56Z</time>
      </trkpt>
      <trkpt lat="47.55434" lon="7.17757">
        <ele>409</ele>
        <time>2014-02-27T11:58:09Z</time>
      </trkpt>
      <trkpt lat="47.55426" lon="7.17781">
        <ele>408</ele>
        <time>2014-02-27T11:58:19Z</time>
      </trkpt>
      <trkpt lat="47.55414" lon="7.17811">
        <ele>411</ele>
        <time>2014-02-27T11:58:32Z</time>
      </trkpt>
      <trkpt lat="47.55403" lon="7.17843">
        <ele>410</ele>
        <time>2014-02-27T11:58:46Z</time>
      </trkpt>
      <trkpt lat="47.55392" lon="7.17879">
        <ele>411</ele>
        <time>2014-02-27T11:59:01Z</time>
      </trkpt>
      <trkpt lat="47.55379" lon="7.17909">
        <ele>412</ele>
        <time>2014-02-27T11:59:15Z</time>
      </trkpt>
      <trkpt lat="47.55369" lon="7.17937">
        <ele>412</ele>
        <time>2014-02-27T11:59:28Z</time>
      </trkpt>
      <trkpt lat="47.55358" lon="7.17968">
        <ele>413</ele>
        <time>2014-02-27T11:59:43Z</time>
      </trkpt>
      <trkpt lat="47.55347" lon="7.17999">
        <ele>414</ele>
        <time>2014-02-27T11:59:56Z</time>
      </trkpt>
      <trkpt lat="47.55336" lon="7.18033">
        <ele>413</ele>
        <time>2014-02-27T12:00:11Z</time>
      </trkpt>
      <trkpt lat="47.55324" lon="7.18063">
        <ele>415</ele>
        <time>2014-02-27T12:00:25Z</time>
      </trkpt>
      <trkpt lat="47.55312" lon="7.18091">
        <ele>414</ele>
        <time>2014-02-27T12:00:39Z</time>
      </trkpt>
      <trkpt lat="47.553" lon="7.18124">
        <ele>414</ele>
        <time>2014-02-27T12:00:53Z</time>
      </trkpt>
      <trkpt lat="47.55287" lon="7.18154">
        <ele>414</ele>
        <time>2014-02-27T12:01:07Z</time>
      </trkpt>
      <trkpt lat="47.55273" lon="7.1818">
        <ele>414</ele>
        <time>2014-02-27T12:01:20Z</time>
      </trkpt>
      <trkpt lat="47.55263" lon="7.18208">
        <ele>414</ele>
        <time>2014-02-27T12:01:33Z</time>
      </trkpt>
      <trkpt lat="47.55252" lon="7.18238">
        <ele>415</ele>
        <time>2014-02-27T12:01:47Z</time>
      </trkpt>
      <trkpt lat="47.5524" lon="7.18269">
        <ele>418</ele>
        <time>2014-02-27T12:02:01Z</time>
      </trkpt>
      <trkpt lat="47.55228" lon="7.18295">
        <ele>418</ele>
        <time>2014-02-27T12:02:14Z</time>
      </trkpt>
      <trkpt lat="47.55217" lon="7.18322">
        <ele>419</ele>
        <time>2014-02-27T12:02:27Z</time>
      </trkpt>
      <trkpt lat="47.55204" lon="7.18354">
        <ele>420</ele>
        <time>2014-02-27T12:02:41Z</time>
      </trkpt>
      <trkpt lat="47.55191" lon="7.18379">
        <ele>420</ele>
        <time>2014-02-27T12:02:55Z</time>
      </trkpt>
      <trkpt lat="47.5518" lon="7.18406">
        <ele>420</ele>
        <time>2014-02-27T12:03:08Z</time>
      </trkpt>
      <trkpt lat="47.55167" lon="7.18436">
        <ele>420</ele>
        <time>2014-02-27T12:03:21Z</time>
      </trkpt>
      <trkpt lat="47.55155" lon="7.18463">
        <ele>422</ele>
        <time>2014-02-27T12:03:35Z</time>
      </trkpt>
      <trkpt lat="47.55142" lon="7.18494">
        <ele>423</ele>
        <time>2014-02-27T12:03:48Z</time>
      </trkpt>
      <trkpt lat="47.55129" lon="7.18528">
        <ele>423</ele>
        <time>2014-02-27T12:04:03Z</time>
      </trkpt>
      <trkpt lat="47.55116" lon="7.18555">
        <ele>423</ele>
        <time>2014-02-27T12:04:16Z</time>
      </trkpt>
      <trkpt lat="47.55102" lon="7.18587">
        <ele>424</ele>
        <time>2014-02-27T12:04:31Z</time>
      </trkpt>
      <trkpt lat="47.55091" lon="7.18614">
        <ele>424</ele>
        <time>2014-02-27T12:04:44Z</time>
      </trkpt>
      <trkpt lat="47.55077" lon="7.18643">
        <ele>424</ele>
        <time>2014-02-27T12:04:57Z</time>
      </trkpt>
      <trkpt lat="47.55063" lon="7.18672">
        <ele>423</ele>
        <time>2014-02-27T12:05:11Z</time>
      </trkpt>
      <trkpt lat="47.55048" lon="7.18703">
        <ele>423</ele>
        <time>2014-02-27T12:05:25Z</time>
      </trkpt>
      <trkpt lat="47.55035" lon="7.18731">
        <ele>422</ele>
        <time>2014-02-27T12:05:38Z</time>
      </trkpt>
      <trkpt lat="47.55024" lon="7.1876">
        <ele>420</ele>
        <time>2014-02-27T12:05:51Z</time>
      </trkpt>
      <trkpt lat="47.55009" lon="7.18787">
        <ele>419</ele>
        <time>2014-02-27T12:06:05Z</time>
      </trkpt>
      <trkpt lat="47.54995" lon="7.18813">
        <ele>415</ele>
        <time>2014-02-27T12:06:19Z</time>
      </trkpt>
      <trkpt lat="47.54979" lon="7.18837">
        <ele>412</ele>
        <time>2014-02-27T12:06:32Z</time>
      </trkpt>
      <trkpt lat="47.54966" lon="7.18864">
        <ele>411</ele>
        <time>2014-02-27T12:06:45Z</time>
      </trkpt>
      <trkpt lat="47.54944" lon="7.18863">
        <ele>411</ele>
        <time>2014-02-27T12:06:59Z</time>
      </trkpt>
      <trkpt lat="47.54926" lon="7.18848">
        <ele>411</ele>
        <time>2014-02-27T12:07:17Z</time>
      </trkpt>
      <trkpt lat="47.54908" lon="7.18841">
        <ele>411</ele>
        <time>2014-02-27T12:08:02Z</time>
      </trkpt>
      <trkpt lat="47.54888" lon="7.18833">
        <ele>412</ele>
        <time>2014-02-27T12:08:16Z</time>
      </trkpt>
      <trkpt lat="47.54867" lon="7.18814">
        <ele>412</ele>
        <time>2014-02-27T12:08:30Z</time>
      </trkpt>
      <trkpt lat="47.54849" lon="7.18795">
        <ele>412</ele>
        <time>2014-02-27T12:08:44Z</time>
      </trkpt>
      <trkpt lat="47.54831" lon="7.18779">
        <ele>409</ele>
        <time>2014-02-27T12:08:57Z</time>
      </trkpt>
      <trkpt lat="47.54811" lon="7.1876">
        <ele>409</ele>
        <time>2014-02-27T12:09:11Z</time>
      </trkpt>
      <trkpt lat="47.54795" lon="7.18738">
        <ele>409</ele>
        <time>2014-02-27T12:09:25Z</time>
      </trkpt>
      <trkpt lat="47.54772" lon="7.18714">
        <ele>409</ele>
        <time>2014-02-27T12:09:38Z</time>
      </trkpt>
      <trkpt lat="47.54748" lon="7.18704">
        <ele>408</ele>
        <time>2014-02-27T12:09:51Z</time>
      </trkpt>
      <trkpt lat="47.54728" lon="7.18699">
        <ele>408</ele>
        <time>2014-02-27T12:10:01Z</time>
      </trkpt>
      <trkpt lat="47.54708" lon="7.18717">
        <ele>408</ele>
        <time>2014-02-27T12:10:15Z</time>
      </trkpt>
      <trkpt lat="47.54688" lon="7.18741">
        <ele>409</ele>
        <time>2014-02-27T12:10:30Z</time>
      </trkpt>
      <trkpt lat="47.54668" lon="7.18765">
        <ele>408</ele>
        <time>2014-02-27T12:10:44Z</time>
      </trkpt>
      <trkpt lat="47.54655" lon="7.18783">
        <ele>409</ele>
        <time>2014-02-27T12:10:54Z</time>
      </trkpt>
      <trkpt lat="47.54638" lon="7.18809">
        <ele>410</ele>
        <time>2014-02-27T12:11:08Z</time>
      </trkpt>
      <trkpt lat="47.54618" lon="7.18834">
        <ele>410</ele>
        <time>2014-02-27T12:11:23Z</time>
      </trkpt>
      <trkpt lat="47.546" lon="7.18858">
        <ele>411</ele>
        <time>2014-02-27T12:11:37Z</time>
      </trkpt>
      <trkpt lat="47.54582" lon="7.1888">
        <ele>412</ele>
        <time>2014-02-27T12:11:51Z</time>
      </trkpt>
      <trkpt lat="47.54562" lon="7.18905">
        <ele>412</ele>
        <time>2014-02-27T12:12:06Z</time>
      </trkpt>
      <trkpt lat="47.54544" lon="7.18929">
        <ele>411</ele>
        <time>2014-02-27T12:12:20Z</time>
      </trkpt>
      <trkpt lat="47.54524" lon="7.18938">
        <ele>411</ele>
        <time>2014-02-27T12:12:33Z</time>
      </trkpt>
      <trkpt lat="47.54505" lon="7.18913">
        <ele>412</ele>
        <time>2014-02-27T12:12:47Z</time>
      </trkpt>
      <trkpt lat="47.54491" lon="7.18894">
        <ele>412</ele>
        <time>2014-02-27T12:12:56Z</time>
      </trkpt>
      <trkpt lat="47.54473" lon="7.18868">
        <ele>412</ele>
        <time>2014-02-27T12:13:10Z</time>
      </trkpt>
      <trkpt lat="47.54453" lon="7.18841">
        <ele>412</ele>
        <time>2014-02-27T12:13:25Z</time>
      </trkpt>
      <trkpt lat="47.54438" lon="7.18814">
        <ele>411</ele>
        <time>2014-02-27T12:13:38Z</time>
      </trkpt>
      <trkpt lat="47.54422" lon="7.18789">
        <ele>411</ele>
        <time>2014-02-27T12:13:52Z</time>
      </trkpt>
      <trkpt lat="47.54409" lon="7.18768">
        <ele>410</ele>
        <time>2014-02-27T12:14:02Z</time>
      </trkpt>
      <trkpt lat="47.54393" lon="7.18743">
        <ele>409</ele>
        <time>2014-02-27T12:14:15Z</time>
      </trkpt>
      <trkpt lat="47.54379" lon="7.18724">
        <ele>409</ele>
        <time>2014-02-27T12:14:25Z</time>
      </trkpt>
      <trkpt lat="47.54361" lon="7.18699">
        <ele>409</ele>
        <time>2014-02-27T12:14:38Z</time>
      </trkpt>
      <trkpt lat="47.54349" lon="7.18678">
        <ele>409</ele>
        <time>2014-02-27T12:14:48Z</time>
      </trkpt>
      <trkpt lat="47.54332" lon="7.18649">
        <ele>408</ele>
        <time>2014-02-27T12:15:02Z</time>
      </trkpt>
      <trkpt lat="47.54316" lon="7.18618">
        <ele>407</ele>
        <time>2014-02-27T12:15:16Z</time>
      </trkpt>
      <trkpt lat="47.543" lon="7.18588">
        <ele>407</ele>
        <time>2014-02-27T12:15:31Z</time>
      </trkpt>
      <trkpt lat="47.54285" lon="7.18559">
        <ele>406</ele>
        <time>2014-02-27T12:15:45Z</time>
      </trkpt>
      <trkpt lat="47.54273" lon="7.1853">
        <ele>406</ele>
        <time>2014-02-27T12:15:59Z</time>
      </trkpt>
      <trkpt lat="47.54259" lon="7.18501">
        <ele>405</ele>
        <time>2014-02-27T12:16:12Z</time>
      </trkpt>
      <trkpt lat="47.54255" lon="7.18468">
        <ele>404</ele>
        <time>2014-02-27T12:16:26Z</time>
      </trkpt>
      <trkpt lat="47.54257" lon="7.18429">
        <ele>404</ele>
        <time>2014-02-27T12:16:41Z</time>
      </trkpt>
      <trkpt lat="47.54254" lon="7.18402">
        <ele>404</ele>
        <time>2014-02-27T12:16:51Z</time>
      </trkpt>
      <trkpt lat="47.54248" lon="7.18374">
        <ele>405</ele>
        <time>2014-02-27T12:17:01Z</time>
      </trkpt>
      <trkpt lat="47.5424" lon="7.18338">
        <ele>405</ele>
        <time>2014-02-27T12:17:15Z</time>
      </trkpt>
      <trkpt lat="47.54228" lon="7.18309">
        <ele>406</ele>
        <time>2014-02-27T12:17:30Z</time>
      </trkpt>
      <trkpt lat="47.54221" lon="7.18282">
        <ele>406</ele>
        <time>2014-02-27T12:17:44Z</time>
      </trkpt>
      <trkpt lat="47.54205" lon="7.18263">
        <ele>407</ele>
        <time>2014-02-27T12:17:59Z</time>
      </trkpt>
      <trkpt lat="47.5419" lon="7.18237">
        <ele>408</ele>
        <time>2014-02-27T12:18:14Z</time>
      </trkpt>
      <trkpt lat="47.54174" lon="7.18223">
        <ele>408</ele>
        <time>2014-02-27T12:18:23Z</time>
      </trkpt>
      <trkpt lat="47.54162" lon="7.18198">
        <ele>406</ele>
        <time>2014-02-27T12:18:33Z</time>
      </trkpt>
      <trkpt lat="47.54144" lon="7.18183">
        <ele>406</ele>
        <time>2014-02-27T12:18:43Z</time>
      </trkpt>
      <trkpt lat="47.5413" lon="7.18155">
        <ele>405</ele>
        <time>2014-02-27T12:18:52Z</time>
      </trkpt>
      <trkpt lat="47.54119" lon="7.18127">
        <ele>405</ele>
        <time>2014-02-27T12:19:07Z</time>
      </trkpt>
      <trkpt lat="47.54107" lon="7.18103">
        <ele>404</ele>
        <time>2014-02-27T12:19:21Z</time>
      </trkpt>
      <trkpt lat="47.5409" lon="7.18095">
        <ele>403</ele>
        <time>2014-02-27T12:19:31Z</time>
      </trkpt>
      <trkpt lat="47.54066" lon="7.18086">
        <ele>401</ele>
        <time>2014-02-27T12:19:45Z</time>
      </trkpt>
      <trkpt lat="47.54049" lon="7.1807">
        <ele>399</ele>
        <time>2014-02-27T12:19:55Z</time>
      </trkpt>
      <trkpt lat="47.54032" lon="7.18043">
        <ele>398</ele>
        <time>2014-02-27T12:20:09Z</time>
      </trkpt>
      <trkpt lat="47.54015" lon="7.18012">
        <ele>395</ele>
        <time>2014-02-27T12:20:19Z</time>
      </trkpt>
      <trkpt lat="47.54017" lon="7.17979">
        <ele>394</ele>
        <time>2014-02-27T12:20:27Z</time>
      </trkpt>
      <trkpt lat="47.54018" lon="7.17952">
        <ele>394</ele>
        <time>2014-02-27T12:20:37Z</time>
      </trkpt>
      <trkpt lat="47.54025" lon="7.1791">
        <ele>389</ele>
        <time>2014-02-27T12:20:51Z</time>
      </trkpt>
      <trkpt lat="47.54029" lon="7.1788">
        <ele>389</ele>
        <time>2014-02-27T12:21:01Z</time>
      </trkpt>
      <trkpt lat="47.54035" lon="7.17847">
        <ele>387</ele>
        <time>2014-02-27T12:21:14Z</time>
      </trkpt>
      <trkpt lat="47.54047" lon="7.17825">
        <ele>383</ele>
        <time>2014-02-27T12:21:23Z</time>
      </trkpt>
      <trkpt lat="47.54062" lon="7.17798">
        <ele>383</ele>
        <time>2014-02-27T12:21:38Z</time>
      </trkpt>
      <trkpt lat="47.54072" lon="7.1777">
        <ele>382</ele>
        <time>2014-02-27T12:21:53Z</time>
      </trkpt>
      <trkpt lat="47.54088" lon="7.17737">
        <ele>384</ele>
        <time>2014-02-27T12:22:02Z</time>
      </trkpt>
      <trkpt lat="47.54083" lon="7.17707">
        <ele>378</ele>
        <time>2014-02-27T12:22:11Z</time>
      </trkpt>
      <trkpt lat="47.54074" lon="7.1768">
        <ele>377</ele>
        <time>2014-02-27T12:22:21Z</time>
      </trkpt>
      <trkpt lat="47.5406" lon="7.17656">
        <ele>375</ele>
        <time>2014-02-27T12:22:31Z</time>
      </trkpt>
      <trkpt lat="47.54038" lon="7.1763">
        <ele>374</ele>
        <time>2014-02-27T12:22:45Z</time>
      </trkpt>
      <trkpt lat="47.54022" lon="7.17613">
        <ele>373</ele>
        <time>2014-02-27T12:22:55Z</time>
      </trkpt>
      <trkpt lat="47.54008" lon="7.17591">
        <ele>373</ele>
        <time>2014-02-27T12:23:05Z</time>
      </trkpt>
      <trkpt lat="47.53991" lon="7.17565">
        <ele>372</ele>
        <time>2014-02-27T12:23:20Z</time>
      </trkpt>
      <trkpt lat="47.53975" lon="7.17541">
        <ele>371</ele>
        <time>2014-02-27T12:23:33Z</time>
      </trkpt>
      <trkpt lat="47.53959" lon="7.17522">
        <ele>371</ele>
        <time>2014-02-27T12:23:43Z</time>
      </trkpt>
      <trkpt lat="47.53944" lon="7.17493">
        <ele>371</ele>
        <time>2014-02-27T12:23:56Z</time>
      </trkpt>
      <trkpt lat="47.53932" lon="7.17472">
        <ele>371</ele>
        <time>2014-02-27T12:24:05Z</time>
      </trkpt>
      <trkpt lat="47.53922" lon="7.17448">
        <ele>371</ele>
        <time>2014-02-27T12:24:15Z</time>
      </trkpt>
      <trkpt lat="47.53912" lon="7.17425">
        <ele>372</ele>
        <time>2014-02-27T12:24:25Z</time>
      </trkpt>
      <trkpt lat="47.53895" lon="7.1741">
        <ele>373</ele>
        <time>2014-02-27T12:24:34Z</time>
      </trkpt>
      <trkpt lat="47.53875" lon="7.17389">
        <ele>374</ele>
        <time>2014-02-27T12:24:49Z</time>
      </trkpt>
      <trkpt lat="47.53878" lon="7.17357">
        <ele>373</ele>
        <time>2014-02-27T12:25:04Z</time>
      </trkpt>
      <trkpt lat="47.53893" lon="7.17328">
        <ele>373</ele>
        <time>2014-02-27T12:25:17Z</time>
      </trkpt>
      <trkpt lat="47.53908" lon="7.173">
        <ele>374</ele>
        <time>2014-02-27T12:25:31Z</time>
      </trkpt>
      <trkpt lat="47.53921" lon="7.17273">
        <ele>371</ele>
        <time>2014-02-27T12:25:44Z</time>
      </trkpt>
      <trkpt lat="47.5394" lon="7.17242">
        <ele>373</ele>
        <time>2014-02-27T12:25:59Z</time>
      </trkpt>
      <trkpt lat="47.53963" lon="7.17236">
        <ele>373</ele>
        <time>2014-02-27T12:26:14Z</time>
      </trkpt>
      <trkpt lat="47.53988" lon="7.17251">
        <ele>370</ele>
        <time>2014-02-27T12:26:29Z</time>
      </trkpt>
      <trkpt lat="47.54011" lon="7.17238">
        <ele>370</ele>
        <time>2014-02-27T12:26:44Z</time>
      </trkpt>
      <trkpt lat="47.54027" lon="7.17223">
        <ele>370</ele>
        <time>2014-02-27T12:26:53Z</time>
      </trkpt>
      <trkpt lat="47.5405" lon="7.17191">
        <ele>370</ele>
        <time>2014-02-27T12:27:08Z</time>
      </trkpt>
      <trkpt lat="47.54063" lon="7.17163">
        <ele>369</ele>
        <time>2014-02-27T12:27:17Z</time>
      </trkpt>
      <trkpt lat="47.54074" lon="7.17128">
        <ele>369</ele>
        <time>2014-02-27T12:27:31Z</time>
      </trkpt>
      <trkpt lat="47.54085" lon="7.17098">
        <ele>367</ele>
        <time>2014-02-27T12:27:45Z</time>
      </trkpt>
      <trkpt lat="47.54099" lon="7.17077">
        <ele>367</ele>
        <time>2014-02-27T12:27:55Z</time>
      </trkpt>
      <trkpt lat="47.54115" lon="7.17052">
        <ele>367</ele>
        <time>2014-02-27T12:28:08Z</time>
      </trkpt>
      <trkpt lat="47.54134" lon="7.17051">
        <ele>367</ele>
        <time>2014-02-27T12:28:26Z</time>
      </trkpt>
      <trkpt lat="47.54149" lon="7.17067">
        <ele>367</ele>
        <time>2014-02-27T12:28:39Z</time>
      </trkpt>
    </trkseg>
  </trk>
</gpx>